sensor_id;sensor_type;location;lat;lon;timestamp;P1;durP1;ratioP1;P2;durP2;ratioP2
22814;SDS011;11574;51.058;13.712;2023-08-07T00:02:54;2.53;;;1.60;;
22814;SDS011;11574;51.058;13.712;2023-08-07T00:07:57;4.73;;;1.60;;
22814;SDS011;11574;51.058;13.712;2023-08-07T00:12:59;3.77;;;1.70;;
22814;SDS011;11574;51.058;13.712;2023-08-07T00:18:02;2.30;;;1.60;;
22814;SDS011;11574;51.058;13.712;2023-08-07T00:23:05;2.50;;;1.50;;
22814;SDS011;11574;51.058;13.712;2023-08-07T00:28:08;2.00;;;1.60;;
22814;SDS011;11574;51.058;13.712;2023-08-07T00:33:10;3.37;;;1.50;;
22814;SDS011;11574;51.058;13.712;2023-08-07T00:38:13;1.97;;;1.40;;
22814;SDS011;11574;51.058;13.712;2023-08-07T00:43:16;2.07;;;1.30;;
22814;SDS011;11574;51.058;13.712;2023-08-07T00:48:18;3.07;;;1.50;;
22814;SDS011;11574;51.058;13.712;2023-08-07T00:53:21;2.07;;;1.87;;
22814;SDS011;11574;51.058;13.712;2023-08-07T00:58:24;4.37;;;2.20;;
22814;SDS011;11574;51.058;13.712;2023-08-07T01:03:26;4.47;;;2.50;;
22814;SDS011;11574;51.058;13.712;2023-08-07T01:08:30;6.43;;;2.50;;
22814;SDS011;11574;51.058;13.712;2023-08-07T01:13:32;2.73;;;2.20;;
22814;SDS011;11574;51.058;13.712;2023-08-07T01:18:37;4.53;;;2.37;;
22814;SDS011;11574;51.058;13.712;2023-08-07T01:23:41;2.53;;;2.10;;
22814;SDS011;11574;51.058;13.712;2023-08-07T01:28:46;3.87;;;1.90;;
22814;SDS011;11574;51.058;13.712;2023-08-07T01:33:53;3.70;;;2.13;;
22814;SDS011;11574;51.058;13.712;2023-08-07T01:38:59;4.37;;;2.20;;
22814;SDS011;11574;51.058;13.712;2023-08-07T01:44:06;3.17;;;2.23;;
22814;SDS011;11574;51.058;13.712;2023-08-07T01:49:09;6.30;;;3.23;;
22814;SDS011;11574;51.058;13.712;2023-08-07T01:54:15;6.47;;;2.23;;
22814;SDS011;11574;51.058;13.712;2023-08-07T01:59:18;2.73;;;2.20;;
22814;SDS011;11574;51.058;13.712;2023-08-07T02:04:20;3.60;;;2.30;;
22814;SDS011;11574;51.058;13.712;2023-08-07T02:09:24;6.37;;;2.50;;
22814;SDS011;11574;51.058;13.712;2023-08-07T02:14:26;3.43;;;3.10;;
22814;SDS011;11574;51.058;13.712;2023-08-07T02:19:28;6.67;;;3.03;;
22814;SDS011;11574;51.058;13.712;2023-08-07T02:24:34;6.60;;;3.23;;
22814;SDS011;11574;51.058;13.712;2023-08-07T02:29:38;6.07;;;3.10;;
22814;SDS011;11574;51.058;13.712;2023-08-07T02:34:41;6.47;;;3.10;;
22814;SDS011;11574;51.058;13.712;2023-08-07T02:39:45;4.63;;;2.97;;
22814;SDS011;11574;51.058;13.712;2023-08-07T02:44:47;6.30;;;3.20;;
22814;SDS011;11574;51.058;13.712;2023-08-07T02:49:50;5.80;;;3.30;;
22814;SDS011;11574;51.058;13.712;2023-08-07T02:54:55;5.90;;;3.10;;
22814;SDS011;11574;51.058;13.712;2023-08-07T02:59:57;6.00;;;3.20;;
22814;SDS011;11574;51.058;13.712;2023-08-07T03:04:59;6.37;;;3.43;;
22814;SDS011;11574;51.058;13.712;2023-08-07T03:10:03;2.90;;;2.33;;
22814;SDS011;11574;51.058;13.712;2023-08-07T03:15:06;6.03;;;2.17;;
22814;SDS011;11574;51.058;13.712;2023-08-07T03:20:08;4.00;;;1.90;;
22814;SDS011;11574;51.058;13.712;2023-08-07T03:25:12;4.47;;;2.27;;
22814;SDS011;11574;51.058;13.712;2023-08-07T03:30:15;3.27;;;2.10;;
22814;SDS011;11574;51.058;13.712;2023-08-07T03:35:19;3.83;;;2.40;;
22814;SDS011;11574;51.058;13.712;2023-08-07T03:40:23;2.93;;;1.90;;
22814;SDS011;11574;51.058;13.712;2023-08-07T03:45:25;3.83;;;2.20;;
22814;SDS011;11574;51.058;13.712;2023-08-07T03:50:28;5.03;;;2.63;;
22814;SDS011;11574;51.058;13.712;2023-08-07T03:55:35;3.90;;;2.23;;
22814;SDS011;11574;51.058;13.712;2023-08-07T04:00:38;3.60;;;2.33;;
22814;SDS011;11574;51.058;13.712;2023-08-07T04:05:40;3.03;;;2.40;;
22814;SDS011;11574;51.058;13.712;2023-08-07T04:10:43;4.03;;;2.60;;
22814;SDS011;11574;51.058;13.712;2023-08-07T04:15:46;6.67;;;3.70;;
22814;SDS011;11574;51.058;13.712;2023-08-07T04:20:49;5.87;;;3.80;;
22814;SDS011;11574;51.058;13.712;2023-08-07T04:25:53;6.70;;;3.87;;
22814;SDS011;11574;51.058;13.712;2023-08-07T04:30:56;5.57;;;3.87;;
22814;SDS011;11574;51.058;13.712;2023-08-07T04:35:58;7.10;;;4.30;;
22814;SDS011;11574;51.058;13.712;2023-08-07T04:41:06;8.30;;;4.47;;
22814;SDS011;11574;51.058;13.712;2023-08-07T04:46:09;12.07;;;4.07;;
22814;SDS011;11574;51.058;13.712;2023-08-07T04:51:12;9.33;;;5.00;;
22814;SDS011;11574;51.058;13.712;2023-08-07T04:56:15;7.87;;;4.73;;
22814;SDS011;11574;51.058;13.712;2023-08-07T05:01:17;10.73;;;5.27;;
22814;SDS011;11574;51.058;13.712;2023-08-07T05:06:21;6.33;;;4.47;;
22814;SDS011;11574;51.058;13.712;2023-08-07T05:11:24;6.47;;;4.90;;
22814;SDS011;11574;51.058;13.712;2023-08-07T05:16:26;9.83;;;5.27;;
22814;SDS011;11574;51.058;13.712;2023-08-07T05:21:29;6.40;;;3.93;;
22814;SDS011;11574;51.058;13.712;2023-08-07T05:26:32;8.20;;;4.10;;
22814;SDS011;11574;51.058;13.712;2023-08-07T05:31:34;7.33;;;3.80;;
22814;SDS011;11574;51.058;13.712;2023-08-07T05:36:37;6.57;;;3.63;;
22814;SDS011;11574;51.058;13.712;2023-08-07T05:41:41;5.67;;;3.07;;
22814;SDS011;11574;51.058;13.712;2023-08-07T05:46:43;4.90;;;3.13;;
22814;SDS011;11574;51.058;13.712;2023-08-07T05:51:45;7.80;;;2.67;;
22814;SDS011;11574;51.058;13.712;2023-08-07T05:56:49;6.63;;;2.87;;
22814;SDS011;11574;51.058;13.712;2023-08-07T06:01:51;5.47;;;2.80;;
22814;SDS011;11574;51.058;13.712;2023-08-07T06:06:53;5.17;;;2.93;;
22814;SDS011;11574;51.058;13.712;2023-08-07T06:11:57;6.07;;;2.70;;
22814;SDS011;11574;51.058;13.712;2023-08-07T06:16:59;5.53;;;2.23;;
22814;SDS011;11574;51.058;13.712;2023-08-07T06:22:02;2.97;;;2.20;;
22814;SDS011;11574;51.058;13.712;2023-08-07T06:27:05;3.13;;;2.30;;
22814;SDS011;11574;51.058;13.712;2023-08-07T06:32:08;3.87;;;2.13;;
22814;SDS011;11574;51.058;13.712;2023-08-07T06:37:11;3.57;;;1.90;;
22814;SDS011;11574;51.058;13.712;2023-08-07T06:42:14;8.30;;;2.23;;
22814;SDS011;11574;51.058;13.712;2023-08-07T06:47:16;7.33;;;2.00;;
22814;SDS011;11574;51.058;13.712;2023-08-07T06:52:22;3.27;;;2.00;;
22814;SDS011;11574;51.058;13.712;2023-08-07T06:57:25;6.57;;;1.97;;
22814;SDS011;11574;51.058;13.712;2023-08-07T07:02:32;5.37;;;1.73;;
22814;SDS011;11574;51.058;13.712;2023-08-07T07:07:34;5.97;;;1.50;;
22814;SDS011;11574;51.058;13.712;2023-08-07T07:12:38;2.90;;;1.70;;
22814;SDS011;11574;51.058;13.712;2023-08-07T07:17:40;3.53;;;1.50;;
22814;SDS011;11574;51.058;13.712;2023-08-07T07:22:42;4.17;;;1.77;;
22814;SDS011;11574;51.058;13.712;2023-08-07T07:27:45;4.13;;;1.37;;
22814;SDS011;11574;51.058;13.712;2023-08-07T07:32:49;4.70;;;1.80;;
22814;SDS011;11574;51.058;13.712;2023-08-07T07:37:52;2.40;;;1.20;;
22814;SDS011;11574;51.058;13.712;2023-08-07T07:42:56;3.07;;;1.27;;
22814;SDS011;11574;51.058;13.712;2023-08-07T07:47:58;5.53;;;1.40;;
22814;SDS011;11574;51.058;13.712;2023-08-07T07:53:01;4.93;;;1.63;;
22814;SDS011;11574;51.058;13.712;2023-08-07T07:58:04;3.10;;;1.40;;
22814;SDS011;11574;51.058;13.712;2023-08-07T08:03:06;4.40;;;1.90;;
22814;SDS011;11574;51.058;13.712;2023-08-07T08:08:09;3.30;;;1.33;;
22814;SDS011;11574;51.058;13.712;2023-08-07T08:13:12;6.63;;;1.30;;
22814;SDS011;11574;51.058;13.712;2023-08-07T08:18:15;1.63;;;0.93;;
22814;SDS011;11574;51.058;13.712;2023-08-07T08:23:17;1.63;;;1.00;;
22814;SDS011;11574;51.058;13.712;2023-08-07T08:28:21;1.63;;;0.90;;
22814;SDS011;11574;51.058;13.712;2023-08-07T08:33:23;2.63;;;1.20;;
22814;SDS011;11574;51.058;13.712;2023-08-07T08:38:25;2.00;;;1.23;;
22814;SDS011;11574;51.058;13.712;2023-08-07T08:43:34;4.43;;;1.47;;
22814;SDS011;11574;51.058;13.712;2023-08-07T08:48:38;1.70;;;1.07;;
22814;SDS011;11574;51.058;13.712;2023-08-07T08:53:41;2.37;;;0.93;;
22814;SDS011;11574;51.058;13.712;2023-08-07T08:58:45;2.53;;;1.10;;
22814;SDS011;11574;51.058;13.712;2023-08-07T09:03:47;4.77;;;1.00;;
22814;SDS011;11574;51.058;13.712;2023-08-07T09:08:49;3.87;;;1.00;;
22814;SDS011;11574;51.058;13.712;2023-08-07T09:13:55;3.03;;;0.80;;
22814;SDS011;11574;51.058;13.712;2023-08-07T09:18:57;3.03;;;1.03;;
22814;SDS011;11574;51.058;13.712;2023-08-07T09:24:00;2.23;;;1.00;;
22814;SDS011;11574;51.058;13.712;2023-08-07T09:29:04;1.90;;;1.17;;
22814;SDS011;11574;51.058;13.712;2023-08-07T09:34:06;2.77;;;0.83;;
22814;SDS011;11574;51.058;13.712;2023-08-07T09:39:08;7.30;;;1.27;;
22814;SDS011;11574;51.058;13.712;2023-08-07T09:44:12;2.30;;;1.00;;
22814;SDS011;11574;51.058;13.712;2023-08-07T09:49:15;1.20;;;0.70;;
22814;SDS011;11574;51.058;13.712;2023-08-07T09:54:17;1.57;;;0.77;;
22814;SDS011;11574;51.058;13.712;2023-08-07T09:59:20;8.23;;;0.93;;
22814;SDS011;11574;51.058;13.712;2023-08-07T10:04:23;2.00;;;1.00;;
22814;SDS011;11574;51.058;13.712;2023-08-07T10:09:25;1.77;;;0.70;;
22814;SDS011;11574;51.058;13.712;2023-08-07T10:14:32;1.00;;;0.90;;
22814;SDS011;11574;51.058;13.712;2023-08-07T10:19:35;1.60;;;1.10;;
22814;SDS011;11574;51.058;13.712;2023-08-07T10:24:39;4.40;;;1.10;;
22814;SDS011;11574;51.058;13.712;2023-08-07T10:29:43;1.30;;;0.90;;
22814;SDS011;11574;51.058;13.712;2023-08-07T10:34:49;3.80;;;1.63;;
22814;SDS011;11574;51.058;13.712;2023-08-07T10:40:03;1.57;;;0.90;;
22814;SDS011;11574;51.058;13.712;2023-08-07T10:45:10;2.33;;;1.20;;
22814;SDS011;11574;51.058;13.712;2023-08-07T10:50:12;3.83;;;1.10;;
22814;SDS011;11574;51.058;13.712;2023-08-07T10:55:15;2.90;;;1.20;;
22814;SDS011;11574;51.058;13.712;2023-08-07T11:00:22;1.43;;;0.97;;
22814;SDS011;11574;51.058;13.712;2023-08-07T11:05:28;1.67;;;1.00;;
22814;SDS011;11574;51.058;13.712;2023-08-07T11:10:32;2.97;;;0.70;;
22814;SDS011;11574;51.058;13.712;2023-08-07T11:15:35;2.73;;;1.50;;
22814;SDS011;11574;51.058;13.712;2023-08-07T11:20:38;2.20;;;0.83;;
22814;SDS011;11574;51.058;13.712;2023-08-07T11:25:41;2.07;;;1.10;;
22814;SDS011;11574;51.058;13.712;2023-08-07T11:30:45;1.03;;;0.80;;
22814;SDS011;11574;51.058;13.712;2023-08-07T11:35:47;2.20;;;0.93;;
22814;SDS011;11574;51.058;13.712;2023-08-07T11:40:49;1.80;;;1.00;;
22814;SDS011;11574;51.058;13.712;2023-08-07T11:45:57;2.40;;;0.90;;
22814;SDS011;11574;51.058;13.712;2023-08-07T11:50:59;3.10;;;1.20;;
22814;SDS011;11574;51.058;13.712;2023-08-07T11:56:02;1.60;;;1.13;;
22814;SDS011;11574;51.058;13.712;2023-08-07T12:01:06;2.40;;;1.13;;
22814;SDS011;11574;51.058;13.712;2023-08-07T12:06:11;2.50;;;1.10;;
22814;SDS011;11574;51.058;13.712;2023-08-07T12:11:13;3.80;;;1.10;;
22814;SDS011;11574;51.058;13.712;2023-08-07T12:16:16;1.23;;;0.80;;
22814;SDS011;11574;51.058;13.712;2023-08-07T12:21:20;3.33;;;1.43;;
22814;SDS011;11574;51.058;13.712;2023-08-07T12:26:25;4.73;;;2.10;;
22814;SDS011;11574;51.058;13.712;2023-08-07T12:31:28;1.20;;;0.70;;
22814;SDS011;11574;51.058;13.712;2023-08-07T12:36:31;1.90;;;0.80;;
22814;SDS011;11574;51.058;13.712;2023-08-07T12:41:33;2.60;;;0.70;;
22814;SDS011;11574;51.058;13.712;2023-08-07T12:46:36;2.80;;;1.73;;
22814;SDS011;11574;51.058;13.712;2023-08-07T12:51:40;3.93;;;1.20;;
22814;SDS011;11574;51.058;13.712;2023-08-07T12:56:42;5.07;;;1.03;;
22814;SDS011;11574;51.058;13.712;2023-08-07T13:01:46;0.77;;;0.57;;
22814;SDS011;11574;51.058;13.712;2023-08-07T13:06:48;1.73;;;0.93;;
22814;SDS011;11574;51.058;13.712;2023-08-07T13:11:51;1.13;;;0.70;;
22814;SDS011;11574;51.058;13.712;2023-08-07T13:16:54;1.70;;;0.93;;
22814;SDS011;11574;51.058;13.712;2023-08-07T13:21:57;3.07;;;2.03;;
22814;SDS011;11574;51.058;13.712;2023-08-07T13:26:59;2.90;;;1.20;;
22814;SDS011;11574;51.058;13.712;2023-08-07T13:32:03;1.00;;;0.40;;
22814;SDS011;11574;51.058;13.712;2023-08-07T13:37:09;2.23;;;0.73;;
22814;SDS011;11574;51.058;13.712;2023-08-07T13:42:11;1.77;;;1.03;;
22814;SDS011;11574;51.058;13.712;2023-08-07T13:47:15;4.30;;;0.70;;
22814;SDS011;11574;51.058;13.712;2023-08-07T13:52:18;1.67;;;0.83;;
22814;SDS011;11574;51.058;13.712;2023-08-07T13:57:20;1.40;;;1.10;;
22814;SDS011;11574;51.058;13.712;2023-08-07T14:02:23;2.53;;;0.60;;
22814;SDS011;11574;51.058;13.712;2023-08-07T14:07:26;3.50;;;1.07;;
22814;SDS011;11574;51.058;13.712;2023-08-07T14:12:28;3.13;;;0.90;;
22814;SDS011;11574;51.058;13.712;2023-08-07T14:17:31;2.40;;;0.77;;
22814;SDS011;11574;51.058;13.712;2023-08-07T14:22:34;1.30;;;0.97;;
22814;SDS011;11574;51.058;13.712;2023-08-07T14:27:38;4.33;;;1.00;;
22814;SDS011;11574;51.058;13.712;2023-08-07T14:32:41;2.27;;;0.90;;
22814;SDS011;11574;51.058;13.712;2023-08-07T14:37:44;3.07;;;0.93;;
22814;SDS011;11574;51.058;13.712;2023-08-07T14:42:47;3.73;;;1.53;;
22814;SDS011;11574;51.058;13.712;2023-08-07T14:47:51;2.53;;;0.83;;
22814;SDS011;11574;51.058;13.712;2023-08-07T14:52:53;1.67;;;1.13;;
22814;SDS011;11574;51.058;13.712;2023-08-07T14:57:55;4.10;;;2.10;;
22814;SDS011;11574;51.058;13.712;2023-08-07T15:02:59;1.80;;;0.80;;
22814;SDS011;11574;51.058;13.712;2023-08-07T15:08:02;1.37;;;0.60;;
22814;SDS011;11574;51.058;13.712;2023-08-07T15:13:04;0.60;;;0.50;;
22814;SDS011;11574;51.058;13.712;2023-08-07T15:18:08;1.20;;;0.87;;
22814;SDS011;11574;51.058;13.712;2023-08-07T15:23:10;1.80;;;1.10;;
22814;SDS011;11574;51.058;13.712;2023-08-07T15:28:12;3.13;;;1.20;;
22814;SDS011;11574;51.058;13.712;2023-08-07T15:33:16;4.63;;;2.07;;
22814;SDS011;11574;51.058;13.712;2023-08-07T15:38:19;4.80;;;1.40;;
22814;SDS011;11574;51.058;13.712;2023-08-07T15:43:21;3.03;;;0.70;;
22814;SDS011;11574;51.058;13.712;2023-08-07T15:48:25;0.63;;;0.60;;
22814;SDS011;11574;51.058;13.712;2023-08-07T15:53:27;1.10;;;0.70;;
22814;SDS011;11574;51.058;13.712;2023-08-07T15:58:30;2.33;;;0.90;;
22814;SDS011;11574;51.058;13.712;2023-08-07T16:03:33;1.90;;;0.63;;
22814;SDS011;11574;51.058;13.712;2023-08-07T16:08:36;3.20;;;1.00;;
22814;SDS011;11574;51.058;13.712;2023-08-07T16:13:38;3.73;;;1.00;;
22814;SDS011;11574;51.058;13.712;2023-08-07T16:18:42;5.43;;;1.83;;
22814;SDS011;11574;51.058;13.712;2023-08-07T16:23:44;7.03;;;2.33;;
22814;SDS011;11574;51.058;13.712;2023-08-07T16:28:46;1.80;;;0.80;;
22814;SDS011;11574;51.058;13.712;2023-08-07T16:33:50;5.73;;;1.43;;
22814;SDS011;11574;51.058;13.712;2023-08-07T16:38:52;1.30;;;0.90;;
22814;SDS011;11574;51.058;13.712;2023-08-07T16:43:54;4.17;;;1.20;;
22814;SDS011;11574;51.058;13.712;2023-08-07T16:48:58;5.30;;;2.03;;
22814;SDS011;11574;51.058;13.712;2023-08-07T16:54:01;3.30;;;1.50;;
22814;SDS011;11574;51.058;13.712;2023-08-07T16:59:04;2.60;;;0.90;;
22814;SDS011;11574;51.058;13.712;2023-08-07T17:04:07;3.80;;;1.10;;
22814;SDS011;11574;51.058;13.712;2023-08-07T17:09:10;2.77;;;1.20;;
22814;SDS011;11574;51.058;13.712;2023-08-07T17:14:12;3.47;;;1.50;;
22814;SDS011;11574;51.058;13.712;2023-08-07T17:19:16;3.77;;;1.27;;
22814;SDS011;11574;51.058;13.712;2023-08-07T17:24:19;3.97;;;1.60;;
22814;SDS011;11574;51.058;13.712;2023-08-07T17:29:21;4.90;;;1.43;;
22814;SDS011;11574;51.058;13.712;2023-08-07T17:34:25;6.20;;;3.07;;
22814;SDS011;11574;51.058;13.712;2023-08-07T17:39:27;3.47;;;1.33;;
22814;SDS011;11574;51.058;13.712;2023-08-07T17:44:30;3.67;;;1.40;;
22814;SDS011;11574;51.058;13.712;2023-08-07T17:49:33;3.40;;;1.80;;
22814;SDS011;11574;51.058;13.712;2023-08-07T17:54:37;6.70;;;1.50;;
22814;SDS011;11574;51.058;13.712;2023-08-07T17:59:40;5.07;;;1.90;;
22814;SDS011;11574;51.058;13.712;2023-08-07T18:04:43;3.00;;;1.50;;
22814;SDS011;11574;51.058;13.712;2023-08-07T18:09:45;5.23;;;1.50;;
22814;SDS011;11574;51.058;13.712;2023-08-07T18:14:48;6.77;;;2.13;;
22814;SDS011;11574;51.058;13.712;2023-08-07T18:19:52;7.67;;;2.03;;
22814;SDS011;11574;51.058;13.712;2023-08-07T18:24:54;6.93;;;2.17;;
22814;SDS011;11574;51.058;13.712;2023-08-07T18:29:57;5.80;;;1.60;;
22814;SDS011;11574;51.058;13.712;2023-08-07T18:35:00;6.53;;;1.50;;
22814;SDS011;11574;51.058;13.712;2023-08-07T18:40:03;5.63;;;1.43;;
22814;SDS011;11574;51.058;13.712;2023-08-07T18:45:06;4.47;;;1.50;;
22814;SDS011;11574;51.058;13.712;2023-08-07T18:50:10;5.80;;;1.93;;
22814;SDS011;11574;51.058;13.712;2023-08-07T18:55:13;3.87;;;1.70;;
22814;SDS011;11574;51.058;13.712;2023-08-07T19:00:15;5.53;;;1.70;;
22814;SDS011;11574;51.058;13.712;2023-08-07T19:05:19;7.87;;;2.07;;
22814;SDS011;11574;51.058;13.712;2023-08-07T19:10:21;6.57;;;2.30;;
22814;SDS011;11574;51.058;13.712;2023-08-07T19:15:23;7.30;;;2.40;;
22814;SDS011;11574;51.058;13.712;2023-08-07T19:20:27;11.47;;;2.70;;
22814;SDS011;11574;51.058;13.712;2023-08-07T19:25:29;6.63;;;2.50;;
22814;SDS011;11574;51.058;13.712;2023-08-07T19:30:31;8.80;;;2.27;;
22814;SDS011;11574;51.058;13.712;2023-08-07T19:35:35;6.30;;;2.27;;
22814;SDS011;11574;51.058;13.712;2023-08-07T19:40:38;9.87;;;2.73;;
22814;SDS011;11574;51.058;13.712;2023-08-07T19:45:40;6.13;;;2.27;;
22814;SDS011;11574;51.058;13.712;2023-08-07T19:50:46;9.80;;;2.80;;
22814;SDS011;11574;51.058;13.712;2023-08-07T19:55:48;7.63;;;2.47;;
22814;SDS011;11574;51.058;13.712;2023-08-07T20:00:51;11.93;;;2.50;;
22814;SDS011;11574;51.058;13.712;2023-08-07T20:05:55;11.70;;;2.90;;
22814;SDS011;11574;51.058;13.712;2023-08-07T20:10:57;6.93;;;2.97;;
22814;SDS011;11574;51.058;13.712;2023-08-07T20:16:00;5.27;;;2.43;;
22814;SDS011;11574;51.058;13.712;2023-08-07T20:21:06;5.47;;;2.10;;
22814;SDS011;11574;51.058;13.712;2023-08-07T20:26:08;8.10;;;2.40;;
22814;SDS011;11574;51.058;13.712;2023-08-07T20:31:10;5.13;;;2.07;;
22814;SDS011;11574;51.058;13.712;2023-08-07T20:36:14;7.90;;;2.47;;
22814;SDS011;11574;51.058;13.712;2023-08-07T20:41:17;7.13;;;2.03;;
22814;SDS011;11574;51.058;13.712;2023-08-07T20:46:19;5.10;;;1.97;;
22814;SDS011;11574;51.058;13.712;2023-08-07T20:51:23;10.13;;;2.43;;
22814;SDS011;11574;51.058;13.712;2023-08-07T20:56:25;4.67;;;2.40;;
22814;SDS011;11574;51.058;13.712;2023-08-07T21:01:27;6.90;;;2.30;;
22814;SDS011;11574;51.058;13.712;2023-08-07T21:06:31;8.60;;;2.00;;
22814;SDS011;11574;51.058;13.712;2023-08-07T21:11:33;7.23;;;2.20;;
22814;SDS011;11574;51.058;13.712;2023-08-07T21:16:35;8.10;;;2.20;;
22814;SDS011;11574;51.058;13.712;2023-08-07T21:21:39;6.33;;;2.10;;
22814;SDS011;11574;51.058;13.712;2023-08-07T21:26:41;7.33;;;2.07;;
22814;SDS011;11574;51.058;13.712;2023-08-07T21:31:43;10.97;;;2.47;;
22814;SDS011;11574;51.058;13.712;2023-08-07T21:36:47;7.27;;;2.73;;
22814;SDS011;11574;51.058;13.712;2023-08-07T21:41:49;3.60;;;1.60;;
22814;SDS011;11574;51.058;13.712;2023-08-07T21:46:51;6.97;;;2.40;;
22814;SDS011;11574;51.058;13.712;2023-08-07T21:51:55;7.27;;;2.07;;
22814;SDS011;11574;51.058;13.712;2023-08-07T21:56:57;6.40;;;2.03;;
22814;SDS011;11574;51.058;13.712;2023-08-07T22:01:59;11.30;;;2.40;;
22814;SDS011;11574;51.058;13.712;2023-08-07T22:07:03;6.23;;;2.20;;
22814;SDS011;11574;51.058;13.712;2023-08-07T22:12:06;6.07;;;2.03;;
22814;SDS011;11574;51.058;13.712;2023-08-07T22:17:08;6.93;;;2.10;;
22814;SDS011;11574;51.058;13.712;2023-08-07T22:22:12;7.70;;;1.90;;
22814;SDS011;11574;51.058;13.712;2023-08-07T22:27:14;10.90;;;2.10;;
22814;SDS011;11574;51.058;13.712;2023-08-07T22:32:16;4.10;;;1.70;;
22814;SDS011;11574;51.058;13.712;2023-08-07T22:37:20;4.17;;;2.43;;
22814;SDS011;11574;51.058;13.712;2023-08-07T22:42:22;6.63;;;2.40;;
22814;SDS011;11574;51.058;13.712;2023-08-07T22:47:25;7.53;;;1.83;;
22814;SDS011;11574;51.058;13.712;2023-08-07T22:52:28;5.07;;;2.07;;
22814;SDS011;11574;51.058;13.712;2023-08-07T22:57:30;5.87;;;2.53;;
22814;SDS011;11574;51.058;13.712;2023-08-07T23:02:33;6.30;;;2.10;;
22814;SDS011;11574;51.058;13.712;2023-08-07T23:07:36;5.53;;;2.07;;
22814;SDS011;11574;51.058;13.712;2023-08-07T23:12:39;8.93;;;2.33;;
22814;SDS011;11574;51.058;13.712;2023-08-07T23:17:41;3.67;;;1.70;;
22814;SDS011;11574;51.058;13.712;2023-08-07T23:22:45;6.93;;;1.80;;
22814;SDS011;11574;51.058;13.712;2023-08-07T23:27:47;4.43;;;1.90;;
22814;SDS011;11574;51.058;13.712;2023-08-07T23:32:49;4.77;;;1.90;;
22814;SDS011;11574;51.058;13.712;2023-08-07T23:37:53;8.33;;;2.00;;
22814;SDS011;11574;51.058;13.712;2023-08-07T23:42:55;8.13;;;2.03;;
22814;SDS011;11574;51.058;13.712;2023-08-07T23:47:57;11.17;;;2.00;;
22814;SDS011;11574;51.058;13.712;2023-08-07T23:53:01;4.43;;;1.97;;
22814;SDS011;11574;51.058;13.712;2023-08-07T23:58:03;6.93;;;2.07;;
